sensor_id;sensor_type;location;lat;lon;timestamp;pressure;altitude;pressure_sealevel;temperature;humidity
68075;BME280;54864;52.002;5.468;2023-05-09T00:00:08;101619.22;;;17.09;78.21
68075;BME280;54864;52.002;5.468;2023-05-09T00:01:12;101618.47;;;17.07;78.56
68075;BME280;54864;52.002;5.468;2023-05-09T00:02:13;101621.97;;;17.08;78.76
68075;BME280;54864;52.002;5.468;2023-05-09T00:03:15;101619.22;;;17.09;78.83
68075;BME280;54864;52.002;5.468;2023-05-09T00:04:16;101620.09;;;17.10;78.75
68075;BME280;54864;52.002;5.468;2023-05-09T00:05:17;101615.69;;;17.09;78.84
68075;BME280;54864;52.002;5.468;2023-05-09T00:06:18;101613.88;;;17.09;78.67
68075;BME280;54864;52.002;5.468;2023-05-09T00:07:21;101613.13;;;17.07;79.11
68075;BME280;54864;52.002;5.468;2023-05-09T00:08:21;101614.94;;;17.07;78.86
68075;BME280;54864;52.002;5.468;2023-05-09T00:09:23;101614.84;;;17.08;78.97
68075;BME280;54864;52.002;5.468;2023-05-09T00:10:25;101618.47;;;17.07;79.04
68075;BME280;54864;52.002;5.468;2023-05-09T00:11:27;101606.75;;;17.10;79.05
68075;BME280;54864;52.002;5.468;2023-05-09T00:12:28;101606.66;;;17.11;78.94
68075;BME280;54864;52.002;5.468;2023-05-09T00:13:29;101606.75;;;17.10;78.92
68075;BME280;54864;52.002;5.468;2023-05-09T00:14:30;101604.19;;;17.08;79.14
68075;BME280;54864;52.002;5.468;2023-05-09T00:15:34;101607.63;;;17.10;79.17
68075;BME280;54864;52.002;5.468;2023-05-09T00:16:35;101598.66;;;17.11;79.16
68075;BME280;54864;52.002;5.468;2023-05-09T00:17:39;101608.38;;;17.13;79.19
68075;BME280;54864;52.002;5.468;2023-05-09T00:18:40;101608.28;;;17.14;78.96
68075;BME280;54864;52.002;5.468;2023-05-09T00:19:42;101605.63;;;17.14;78.72
68075;BME280;54864;52.002;5.468;2023-05-09T00:20:43;101596.78;;;17.14;78.78
68075;BME280;54864;52.002;5.468;2023-05-09T00:21:45;101600.38;;;17.13;78.78
68075;BME280;54864;52.002;5.468;2023-05-09T00:22:46;101597.91;;;17.09;78.95
68075;BME280;54864;52.002;5.468;2023-05-09T00:23:48;101594.47;;;17.07;79.12
68075;BME280;54864;52.002;5.468;2023-05-09T00:24:49;101597.59;;;17.00;79.69
68075;BME280;54864;52.002;5.468;2023-05-09T00:25:51;101591.41;;;16.99;79.75
68075;BME280;54864;52.002;5.468;2023-05-09T00:26:52;101594.00;;;17.01;79.67
68075;BME280;54864;52.002;5.468;2023-05-09T00:27:53;101595.69;;;17.02;79.74
68075;BME280;54864;52.002;5.468;2023-05-09T00:28:57;101598.94;;;17.07;79.57
68075;BME280;54864;52.002;5.468;2023-05-09T00:29:59;101591.91;;;17.06;79.67
68075;BME280;54864;52.002;5.468;2023-05-09T00:31:02;101592.75;;;17.06;79.62
68075;BME280;54864;52.002;5.468;2023-05-09T00:32:04;101604.28;;;17.07;79.51
68075;BME280;54864;52.002;5.468;2023-05-09T00:33:04;101599.81;;;17.07;79.46
68075;BME280;54864;52.002;5.468;2023-05-09T00:34:09;101601.78;;;17.04;79.83
68075;BME280;54864;52.002;5.468;2023-05-09T00:35:10;101595.53;;;17.05;79.82
68075;BME280;54864;52.002;5.468;2023-05-09T00:36:11;101592.00;;;17.04;79.69
68075;BME280;54864;52.002;5.468;2023-05-09T00:37:12;101593.81;;;17.04;80.09
68075;BME280;54864;52.002;5.468;2023-05-09T00:38:14;101597.81;;;17.11;79.83
68075;BME280;54864;52.002;5.468;2023-05-09T00:39:14;101595.06;;;17.13;79.30
68075;BME280;54864;52.002;5.468;2023-05-09T00:40:16;101583.63;;;17.10;79.71
68075;BME280;54864;52.002;5.468;2023-05-09T00:41:19;101586.28;;;17.10;79.71
68075;BME280;54864;52.002;5.468;2023-05-09T00:42:21;101592.38;;;17.13;79.84
68075;BME280;54864;52.002;5.468;2023-05-09T00:43:21;101589.63;;;17.14;79.70
68075;BME280;54864;52.002;5.468;2023-05-09T00:44:23;101588.69;;;17.15;79.84
68075;BME280;54864;52.002;5.468;2023-05-09T00:45:24;101592.13;;;17.17;79.85
68075;BME280;54864;52.002;5.468;2023-05-09T00:46:27;101589.25;;;17.20;79.75
68075;BME280;54864;52.002;5.468;2023-05-09T00:47:28;101592.03;;;17.19;79.84
68075;BME280;54864;52.002;5.468;2023-05-09T00:48:30;101591.25;;;17.17;80.16
68075;BME280;54864;52.002;5.468;2023-05-09T00:49:31;101584.13;;;17.17;80.17
68075;BME280;54864;52.002;5.468;2023-05-09T00:50:35;101575.09;;;17.20;80.24
68075;BME280;54864;52.002;5.468;2023-05-09T00:51:40;101581.94;;;17.24;79.95
68075;BME280;54864;52.002;5.468;2023-05-09T00:52:41;101580.88;;;17.26;79.73
68075;BME280;54864;52.002;5.468;2023-05-09T00:53:43;101579.94;;;17.27;79.47
68075;BME280;54864;52.002;5.468;2023-05-09T00:54:44;101580.41;;;17.20;79.55
68075;BME280;54864;52.002;5.468;2023-05-09T00:55:45;101581.44;;;17.17;79.86
68075;BME280;54864;52.002;5.468;2023-05-09T00:56:47;101577.06;;;17.16;80.51
68075;BME280;54864;52.002;5.468;2023-05-09T00:57:48;101579.56;;;17.19;80.26
68075;BME280;54864;52.002;5.468;2023-05-09T00:58:50;101580.41;;;17.20;80.30
68075;BME280;54864;52.002;5.468;2023-05-09T00:59:51;101581.16;;;17.22;80.30
68075;BME280;54864;52.002;5.468;2023-05-09T01:00:53;101587.44;;;17.21;80.18
68075;BME280;54864;52.002;5.468;2023-05-09T01:01:55;101577.56;;;17.23;80.15
68075;BME280;54864;52.002;5.468;2023-05-09T01:02:57;101581.84;;;17.25;79.84
68075;BME280;54864;52.002;5.468;2023-05-09T01:03:58;101585.28;;;17.27;79.90
68075;BME280;54864;52.002;5.468;2023-05-09T01:05:02;101579.94;;;17.27;79.79
68075;BME280;54864;52.002;5.468;2023-05-09T01:06:09;101578.13;;;17.28;79.91
68075;BME280;54864;52.002;5.468;2023-05-09T01:07:19;101572.72;;;17.29;79.84
68075;BME280;54864;52.002;5.468;2023-05-09T01:08:30;101569.09;;;17.30;79.61
68075;BME280;54864;52.002;5.468;2023-05-09T01:09:38;101571.75;;;17.30;79.46
68075;BME280;54864;52.002;5.468;2023-05-09T01:10:47;101569.00;;;17.32;79.37
68075;BME280;54864;52.002;5.468;2023-05-09T01:12:08;101561.09;;;17.30;79.59
68075;BME280;54864;52.002;5.468;2023-05-09T01:13:17;101557.47;;;17.31;79.67
68075;BME280;54864;52.002;5.468;2023-05-09T01:14:28;101560.16;;;17.31;79.64
68075;BME280;54864;52.002;5.468;2023-05-09T01:15:36;101561.75;;;17.34;79.28
68075;BME280;54864;52.002;5.468;2023-05-09T01:16:42;101563.66;;;17.32;79.32
68075;BME280;54864;52.002;5.468;2023-05-09T01:17:52;101563.75;;;17.30;79.59
68075;BME280;54864;52.002;5.468;2023-05-09T01:19:01;101559.47;;;17.28;79.43
68075;BME280;54864;52.002;5.468;2023-05-09T01:20:12;101551.47;;;17.28;79.42
68075;BME280;54864;52.002;5.468;2023-05-09T01:21:18;101562.25;;;17.26;79.46
68075;BME280;54864;52.002;5.468;2023-05-09T01:22:21;101555.19;;;17.25;79.70
68075;BME280;54864;52.002;5.468;2023-05-09T01:24:02;101547.19;;;17.25;79.53
68075;BME280;54864;52.002;5.468;2023-05-09T01:25:48;101539.09;;;17.27;79.76
68075;BME280;54864;52.002;5.468;2023-05-09T01:27:12;101539.97;;;17.27;79.61
68075;BME280;54864;52.002;5.468;2023-05-09T01:28:33;101536.63;;;17.24;79.65
68075;BME280;54864;52.002;5.468;2023-05-09T01:29:40;101537.38;;;17.26;79.51
68075;BME280;54864;52.002;5.468;2023-05-09T01:30:44;101527.78;;;17.23;79.32
68075;BME280;54864;52.002;5.468;2023-05-09T01:31:46;101528.72;;;17.22;79.21
68075;BME280;54864;52.002;5.468;2023-05-09T01:32:50;101522.72;;;17.19;79.54
68075;BME280;54864;52.002;5.468;2023-05-09T01:33:55;101526.34;;;17.18;79.60
68075;BME280;54864;52.002;5.468;2023-05-09T01:34:59;101519.13;;;17.20;79.40
68075;BME280;54864;52.002;5.468;2023-05-09T01:36:03;101517.41;;;17.19;79.35
68075;BME280;54864;52.002;5.468;2023-05-09T01:37:07;101518.34;;;17.18;79.25
68075;BME280;54864;52.002;5.468;2023-05-09T01:38:11;101519.41;;;17.15;79.56
68075;BME280;54864;52.002;5.468;2023-05-09T01:39:16;101520.72;;;17.08;79.58
68075;BME280;54864;52.002;5.468;2023-05-09T01:40:19;101523.50;;;17.06;79.73
68075;BME280;54864;52.002;5.468;2023-05-09T01:41:22;101527.19;;;17.04;79.99
68075;BME280;54864;52.002;5.468;2023-05-09T01:42:28;101523.88;;;17.00;79.97
68075;BME280;54864;52.002;5.468;2023-05-09T01:43:32;101524.63;;;17.02;80.04
68075;BME280;54864;52.002;5.468;2023-05-09T01:44:37;101518.34;;;17.03;79.97
68075;BME280;54864;52.002;5.468;2023-05-09T01:45:40;101528.25;;;17.01;80.16
68075;BME280;54864;52.002;5.468;2023-05-09T01:46:43;101523.00;;;17.00;80.04
68075;BME280;54864;52.002;5.468;2023-05-09T01:47:46;101526.72;;;16.97;80.39
68075;BME280;54864;52.002;5.468;2023-05-09T01:48:48;101512.34;;;17.00;80.34
68075;BME280;54864;52.002;5.468;2023-05-09T01:49:51;101523.88;;;17.00;80.11
68075;BME280;54864;52.002;5.468;2023-05-09T01:50:53;101518.44;;;17.02;79.99
68075;BME280;54864;52.002;5.468;2023-05-09T01:51:56;101514.25;;;16.98;80.01
68075;BME280;54864;52.002;5.468;2023-05-09T01:52:59;101509.22;;;16.93;80.43
68075;BME280;54864;52.002;5.468;2023-05-09T01:54:02;101511.16;;;16.90;80.24
68075;BME280;54864;52.002;5.468;2023-05-09T01:55:06;101512.97;;;16.89;80.35
68075;BME280;54864;52.002;5.468;2023-05-09T01:56:08;101507.59;;;16.91;80.47
68075;BME280;54864;52.002;5.468;2023-05-09T01:57:10;101508.50;;;16.90;80.55
68075;BME280;54864;52.002;5.468;2023-05-09T01:58:13;101499.50;;;16.92;80.35
68075;BME280;54864;52.002;5.468;2023-05-09T01:59:16;101509.44;;;16.89;80.19
68075;BME280;54864;52.002;5.468;2023-05-09T02:00:21;101505.44;;;16.82;80.53
68075;BME280;54864;52.002;5.468;2023-05-09T02:01:23;101507.16;;;16.83;80.60
68075;BME280;54864;52.002;5.468;2023-05-09T02:02:26;101507.16;;;16.83;80.61
68075;BME280;54864;52.002;5.468;2023-05-09T02:03:27;101504.50;;;16.83;80.74
68075;BME280;54864;52.002;5.468;2023-05-09T02:04:29;101509.81;;;16.83;80.66
68075;BME280;54864;52.002;5.468;2023-05-09T02:05:31;101506.41;;;16.80;80.71
68075;BME280;54864;52.002;5.468;2023-05-09T02:06:34;101508.13;;;16.82;80.75
68075;BME280;54864;52.002;5.468;2023-05-09T02:07:36;101510.09;;;16.78;80.73
68075;BME280;54864;52.002;5.468;2023-05-09T02:08:41;101509.53;;;16.73;81.01
68075;BME280;54864;52.002;5.468;2023-05-09T02:09:42;101504.00;;;16.76;81.12
68075;BME280;54864;52.002;5.468;2023-05-09T02:10:45;101499.25;;;16.81;81.19
68075;BME280;54864;52.002;5.468;2023-05-09T02:11:46;101499.94;;;16.85;80.86
68075;BME280;54864;52.002;5.468;2023-05-09T02:12:48;101494.59;;;16.85;80.80
68075;BME280;54864;52.002;5.468;2023-05-09T02:13:49;101491.19;;;16.83;81.14
68075;BME280;54864;52.002;5.468;2023-05-09T02:14:51;101493.84;;;16.83;81.13
68075;BME280;54864;52.002;5.468;2023-05-09T02:15:54;101487.84;;;16.79;81.14
68075;BME280;54864;52.002;5.468;2023-05-09T02:16:55;101487.75;;;16.80;81.30
68075;BME280;54864;52.002;5.468;2023-05-09T02:17:56;101491.38;;;16.79;81.35
68075;BME280;54864;52.002;5.468;2023-05-09T02:18:58;101496.59;;;16.81;81.32
68075;BME280;54864;52.002;5.468;2023-05-09T02:19:59;101501.34;;;16.76;81.58
68075;BME280;54864;52.002;5.468;2023-05-09T02:21:01;101502.13;;;16.78;81.64
68075;BME280;54864;52.002;5.468;2023-05-09T02:22:02;101487.66;;;16.82;81.54
68075;BME280;54864;52.002;5.468;2023-05-09T02:23:05;101493.84;;;16.83;81.18
68075;BME280;54864;52.002;5.468;2023-05-09T02:24:06;101485.94;;;16.81;81.39
68075;BME280;54864;52.002;5.468;2023-05-09T02:25:11;101491.09;;;16.84;81.27
68075;BME280;54864;52.002;5.468;2023-05-09T02:26:14;101484.81;;;16.85;81.20
68075;BME280;54864;52.002;5.468;2023-05-09T02:27:16;101477.78;;;16.84;81.07
68075;BME280;54864;52.002;5.468;2023-05-09T02:28:19;101479.66;;;16.82;81.11
68075;BME280;54864;52.002;5.468;2023-05-09T02:29:28;101483.97;;;16.85;81.20
68075;BME280;54864;52.002;5.468;2023-05-09T02:30:36;101483.88;;;16.86;80.99
68075;BME280;54864;52.002;5.468;2023-05-09T02:31:41;101479.56;;;16.84;80.90
68075;BME280;54864;52.002;5.468;2023-05-09T02:32:44;101479.47;;;16.85;80.58
68075;BME280;54864;52.002;5.468;2023-05-09T02:33:47;101480.44;;;16.84;80.71
68075;BME280;54864;52.002;5.468;2023-05-09T02:34:50;101477.78;;;16.84;80.71
68075;BME280;54864;52.002;5.468;2023-05-09T02:35:52;101486.91;;;16.80;80.93
68075;BME280;54864;52.002;5.468;2023-05-09T02:36:53;101484.44;;;16.77;80.95
68075;BME280;54864;52.002;5.468;2023-05-09T02:37:56;101481.84;;;16.75;80.62
68075;BME280;54864;52.002;5.468;2023-05-09T02:38:58;101482.53;;;16.79;80.88
68075;BME280;54864;52.002;5.468;2023-05-09T02:40:00;101481.47;;;16.82;80.69
68075;BME280;54864;52.002;5.468;2023-05-09T02:41:01;101478.06;;;16.79;80.71
68075;BME280;54864;52.002;5.468;2023-05-09T02:42:06;101479.00;;;16.78;80.71
68075;BME280;54864;52.002;5.468;2023-05-09T02:43:07;101474.53;;;16.79;80.86
68075;BME280;54864;52.002;5.468;2023-05-09T02:44:09;101481.66;;;16.78;80.61
68075;BME280;54864;52.002;5.468;2023-05-09T02:45:10;101482.72;;;16.76;80.80
68075;BME280;54864;52.002;5.468;2023-05-09T02:46:11;101479.09;;;16.77;80.90
68075;BME280;54864;52.002;5.468;2023-05-09T02:47:14;101487.94;;;16.77;80.82
68075;BME280;54864;52.002;5.468;2023-05-09T02:48:15;101479.94;;;16.77;80.87
68075;BME280;54864;52.002;5.468;2023-05-09T02:49:16;101487.94;;;16.77;80.58
68075;BME280;54864;52.002;5.468;2023-05-09T02:50:18;101486.13;;;16.78;80.55
68075;BME280;54864;52.002;5.468;2023-05-09T02:51:21;101479.84;;;16.79;80.67
68075;BME280;54864;52.002;5.468;2023-05-09T02:52:23;101481.75;;;16.77;80.83
68075;BME280;54864;52.002;5.468;2023-05-09T02:53:24;101479.19;;;16.75;80.83
68075;BME280;54864;52.002;5.468;2023-05-09T02:54:26;101480.03;;;16.76;80.74
68075;BME280;54864;52.002;5.468;2023-05-09T02:55:26;101485.38;;;16.76;80.92
68075;BME280;54864;52.002;5.468;2023-05-09T02:56:28;101479.09;;;16.77;80.91
68075;BME280;54864;52.002;5.468;2023-05-09T02:57:29;101473.09;;;16.73;81.19
68075;BME280;54864;52.002;5.468;2023-05-09T02:58:30;101481.19;;;16.72;81.17
68075;BME280;54864;52.002;5.468;2023-05-09T02:59:34;101476.63;;;16.74;81.08
68075;BME280;54864;52.002;5.468;2023-05-09T03:00:42;101474.72;;;16.76;81.35
68075;BME280;54864;52.002;5.468;2023-05-09T03:01:43;101476.72;;;16.72;81.51
68075;BME280;54864;52.002;5.468;2023-05-09T03:02:45;101474.06;;;16.72;81.78
68075;BME280;54864;52.002;5.468;2023-05-09T03:03:48;101471.09;;;16.77;81.42
68075;BME280;54864;52.002;5.468;2023-05-09T03:04:48;101468.34;;;16.78;81.15
68075;BME280;54864;52.002;5.468;2023-05-09T03:05:50;101472.91;;;16.76;81.29
68075;BME280;54864;52.002;5.468;2023-05-09T03:06:51;101468.34;;;16.78;81.13
68075;BME280;54864;52.002;5.468;2023-05-09T03:07:53;101469.50;;;16.74;81.30
68075;BME280;54864;52.002;5.468;2023-05-09T03:08:53;101466.06;;;16.72;81.59
68075;BME280;54864;52.002;5.468;2023-05-09T03:09:55;101468.63;;;16.74;81.49
68075;BME280;54864;52.002;5.468;2023-05-09T03:10:56;101462.53;;;16.72;81.51
68075;BME280;54864;52.002;5.468;2023-05-09T03:12:00;101469.59;;;16.73;81.68
68075;BME280;54864;52.002;5.468;2023-05-09T03:13:01;101458.84;;;16.74;81.56
68075;BME280;54864;52.002;5.468;2023-05-09T03:14:03;101461.59;;;16.73;81.52
68075;BME280;54864;52.002;5.468;2023-05-09T03:15:05;101458.84;;;16.74;81.55
68075;BME280;54864;52.002;5.468;2023-05-09T03:16:06;101459.69;;;16.75;81.74
68075;BME280;54864;52.002;5.468;2023-05-09T03:17:07;101462.44;;;16.73;81.47
68075;BME280;54864;52.002;5.468;2023-05-09T03:18:10;101453.59;;;16.73;81.54
68075;BME280;54864;52.002;5.468;2023-05-09T03:19:11;101455.22;;;16.75;81.24
68075;BME280;54864;52.002;5.468;2023-05-09T03:20:13;101450.94;;;16.73;81.41
68075;BME280;54864;52.002;5.468;2023-05-09T03:21:15;101450.09;;;16.72;81.41
68075;BME280;54864;52.002;5.468;2023-05-09T03:22:16;101450.09;;;16.72;81.38
68075;BME280;54864;52.002;5.468;2023-05-09T03:23:17;101450.94;;;16.73;81.23
68075;BME280;54864;52.002;5.468;2023-05-09T03:24:19;101452.75;;;16.72;81.33
68075;BME280;54864;52.002;5.468;2023-05-09T03:25:19;101441.25;;;16.72;81.45
68075;BME280;54864;52.002;5.468;2023-05-09T03:26:21;101452.84;;;16.71;81.32
68075;BME280;54864;52.002;5.468;2023-05-09T03:27:22;101445.81;;;16.70;81.39
68075;BME280;54864;52.002;5.468;2023-05-09T03:28:26;101446.56;;;16.72;81.35
68075;BME280;54864;52.002;5.468;2023-05-09T03:29:26;101438.38;;;16.75;81.55
68075;BME280;54864;52.002;5.468;2023-05-09T03:30:28;101440.28;;;16.73;81.07
68075;BME280;54864;52.002;5.468;2023-05-09T03:31:29;101447.41;;;16.72;81.25
68075;BME280;54864;52.002;5.468;2023-05-09T03:32:31;101455.59;;;16.69;81.45
68075;BME280;54864;52.002;5.468;2023-05-09T03:33:36;101446.84;;;16.67;81.37
68075;BME280;54864;52.002;5.468;2023-05-09T03:34:40;101447.94;;;16.63;81.74
68075;BME280;54864;52.002;5.468;2023-05-09T03:35:41;101442.47;;;16.66;81.46
68075;BME280;54864;52.002;5.468;2023-05-09T03:36:43;101442.63;;;16.63;81.76
68075;BME280;54864;52.002;5.468;2023-05-09T03:37:45;101439.97;;;16.63;81.78
68075;BME280;54864;52.002;5.468;2023-05-09T03:38:45;101429.16;;;16.66;81.78
68075;BME280;54864;52.002;5.468;2023-05-09T03:39:47;101429.22;;;16.65;81.75
68075;BME280;54864;52.002;5.468;2023-05-09T03:40:48;101424.84;;;16.64;81.74
68075;BME280;54864;52.002;5.468;2023-05-09T03:41:49;101421.31;;;16.63;81.70
68075;BME280;54864;52.002;5.468;2023-05-09T03:42:50;101425.63;;;16.66;81.99
68075;BME280;54864;52.002;5.468;2023-05-09T03:43:52;101414.19;;;16.64;81.94
68075;BME280;54864;52.002;5.468;2023-05-09T03:44:52;101408.19;;;16.60;82.11
68075;BME280;54864;52.002;5.468;2023-05-09T03:45:54;101412.56;;;16.61;82.00
68075;BME280;54864;52.002;5.468;2023-05-09T03:46:55;101405.34;;;16.63;82.16
68075;BME280;54864;52.002;5.468;2023-05-09T03:47:57;101404.34;;;16.66;81.93
68075;BME280;54864;52.002;5.468;2023-05-09T03:48:59;101407.91;;;16.65;82.03
68075;BME280;54864;52.002;5.468;2023-05-09T03:50:00;101411.47;;;16.65;82.17
68075;BME280;54864;52.002;5.468;2023-05-09T03:51:01;101414.03;;;16.67;81.80
68075;BME280;54864;52.002;5.468;2023-05-09T03:52:03;101405.19;;;16.66;81.86
68075;BME280;54864;52.002;5.468;2023-05-09T03:53:03;101406.91;;;16.67;81.69
68075;BME280;54864;52.002;5.468;2023-05-09T03:54:05;101405.19;;;16.66;81.84
68075;BME280;54864;52.002;5.468;2023-05-09T03:55:07;101404.25;;;16.67;81.63
68075;BME280;54864;52.002;5.468;2023-05-09T03:56:09;101405.97;;;16.68;81.51
68075;BME280;54864;52.002;5.468;2023-05-09T03:57:10;101402.44;;;16.68;81.35
68075;BME280;54864;52.002;5.468;2023-05-09T03:58:11;101406.81;;;16.69;81.55
68075;BME280;54864;52.002;5.468;2023-05-09T03:59:12;101413.84;;;16.70;81.41
68075;BME280;54864;52.002;5.468;2023-05-09T04:00:14;101409.38;;;16.70;81.32
68075;BME280;54864;52.002;5.468;2023-05-09T04:01:15;101408.63;;;16.68;81.65
68075;BME280;54864;52.002;5.468;2023-05-09T04:02:16;101399.50;;;16.72;81.08
68075;BME280;54864;52.002;5.468;2023-05-09T04:03:17;101402.16;;;16.72;81.17
68075;BME280;54864;52.002;5.468;2023-05-09T04:04:20;101402.53;;;16.66;81.34
68075;BME280;54864;52.002;5.468;2023-05-09T04:05:21;101393.50;;;16.69;81.43
68075;BME280;54864;52.002;5.468;2023-05-09T04:06:23;101405.97;;;16.68;81.47
68075;BME280;54864;52.002;5.468;2023-05-09T04:07:23;101398.81;;;16.69;81.30
68075;BME280;54864;52.002;5.468;2023-05-09T04:08:26;101394.53;;;16.66;81.24
68075;BME280;54864;52.002;5.468;2023-05-09T04:09:27;101394.59;;;16.65;81.25
68075;BME280;54864;52.002;5.468;2023-05-09T04:10:29;101392.75;;;16.67;81.37
68075;BME280;54864;52.002;5.468;2023-05-09T04:11:30;101391.19;;;16.63;81.44
68075;BME280;54864;52.002;5.468;2023-05-09T04:12:31;101395.50;;;16.65;81.20
68075;BME280;54864;52.002;5.468;2023-05-09T04:13:32;101395.75;;;16.61;81.22
68075;BME280;54864;52.002;5.468;2023-05-09T04:14:34;101395.75;;;16.61;81.28
68075;BME280;54864;52.002;5.468;2023-05-09T04:15:35;101386.03;;;16.60;81.21
68075;BME280;54864;52.002;5.468;2023-05-09T04:16:39;101390.41;;;16.61;81.14
68075;BME280;54864;52.002;5.468;2023-05-09T04:17:40;101391.47;;;16.58;81.44
68075;BME280;54864;52.002;5.468;2023-05-09T04:18:42;101382.53;;;16.59;81.57
68075;BME280;54864;52.002;5.468;2023-05-09T04:19:44;101393.84;;;16.63;81.64
68075;BME280;54864;52.002;5.468;2023-05-09T04:20:46;101395.50;;;16.65;81.45
68075;BME280;54864;52.002;5.468;2023-05-09T04:21:46;101384.84;;;16.65;80.92
68075;BME280;54864;52.002;5.468;2023-05-09T04:22:48;101392.41;;;16.57;80.84
68075;BME280;54864;52.002;5.468;2023-05-09T04:23:49;101389.84;;;16.56;81.14
68075;BME280;54864;52.002;5.468;2023-05-09T04:24:50;101387.28;;;16.54;81.29
68075;BME280;54864;52.002;5.468;2023-05-09T04:25:51;101390.91;;;16.53;81.25
68075;BME280;54864;52.002;5.468;2023-05-09T04:26:53;101391.94;;;16.51;81.04
68075;BME280;54864;52.002;5.468;2023-05-09T04:27:54;101393.16;;;16.45;81.54
68075;BME280;54864;52.002;5.468;2023-05-09T04:28:56;101390.22;;;16.49;81.69
68075;BME280;54864;52.002;5.468;2023-05-09T04:29:56;101387.19;;;16.56;81.56
68075;BME280;54864;52.002;5.468;2023-05-09T04:30:58;101387.28;;;16.54;81.80
68075;BME280;54864;52.002;5.468;2023-05-09T04:31:59;101387.56;;;16.49;81.50
68075;BME280;54864;52.002;5.468;2023-05-09T04:33:01;101382.25;;;16.49;81.69
68075;BME280;54864;52.002;5.468;2023-05-09T04:34:05;101385.66;;;16.52;81.61
68075;BME280;54864;52.002;5.468;2023-05-09T04:35:08;101382.81;;;16.55;81.35
68075;BME280;54864;52.002;5.468;2023-05-09T04:36:09;101384.81;;;16.51;81.98
68075;BME280;54864;52.002;5.468;2023-05-09T04:37:11;101385.47;;;16.55;81.61
68075;BME280;54864;52.002;5.468;2023-05-09T04:38:12;101379.97;;;16.58;81.30
68075;BME280;54864;52.002;5.468;2023-05-09T04:39:17;101380.72;;;16.60;81.12
68075;BME280;54864;52.002;5.468;2023-05-09T04:40:18;101382.44;;;16.61;81.14
68075;BME280;54864;52.002;5.468;2023-05-09T04:41:20;101378.16;;;16.58;80.67
68075;BME280;54864;52.002;5.468;2023-05-09T04:42:22;101381.00;;;16.55;81.29
68075;BME280;54864;52.002;5.468;2023-05-09T04:43:24;101376.44;;;16.57;81.01
68075;BME280;54864;52.002;5.468;2023-05-09T04:44:27;101387.75;;;16.61;81.02
68075;BME280;54864;52.002;5.468;2023-05-09T04:45:28;101378.25;;;16.57;81.20
68075;BME280;54864;52.002;5.468;2023-05-09T04:46:29;101373.50;;;16.62;81.18
68075;BME280;54864;52.002;5.468;2023-05-09T04:47:31;101374.44;;;16.61;80.96
68075;BME280;54864;52.002;5.468;2023-05-09T04:48:32;101381.56;;;16.60;81.28
68075;BME280;54864;52.002;5.468;2023-05-09T04:49:35;101373.03;;;16.55;81.35
68075;BME280;54864;52.002;5.468;2023-05-09T04:50:37;101379.09;;;16.57;81.33
68075;BME280;54864;52.002;5.468;2023-05-09T04:51:42;101377.41;;;16.56;81.62
68075;BME280;54864;52.002;5.468;2023-05-09T04:52:42;101375.22;;;16.63;81.28
68075;BME280;54864;52.002;5.468;2023-05-09T04:53:44;101372.38;;;16.66;81.16
68075;BME280;54864;52.002;5.468;2023-05-09T04:54:45;101368.59;;;16.70;81.36
68075;BME280;54864;52.002;5.468;2023-05-09T04:55:46;101367.53;;;16.72;81.23
68075;BME280;54864;52.002;5.468;2023-05-09T04:56:47;101369.91;;;16.77;80.96
68075;BME280;54864;52.002;5.468;2023-05-09T04:57:49;101368.78;;;16.81;80.43
68075;BME280;54864;52.002;5.468;2023-05-09T04:58:50;101365.44;;;16.77;80.25
68075;BME280;54864;52.002;5.468;2023-05-09T04:59:52;101360.97;;;16.78;80.67
68075;BME280;54864;52.002;5.468;2023-05-09T05:00:52;101359.91;;;16.80;80.36
68075;BME280;54864;52.002;5.468;2023-05-09T05:01:54;101357.16;;;16.82;80.43
68075;BME280;54864;52.002;5.468;2023-05-09T05:02:55;101361.25;;;16.88;80.85
68075;BME280;54864;52.002;5.468;2023-05-09T05:04:03;101356.22;;;16.83;80.67
68075;BME280;54864;52.002;5.468;2023-05-09T05:05:04;101358.97;;;16.82;80.28
68075;BME280;54864;52.002;5.468;2023-05-09T05:06:08;101364.50;;;16.78;79.35
68075;BME280;54864;52.002;5.468;2023-05-09T05:07:08;101362.69;;;16.79;79.82
68075;BME280;54864;52.002;5.468;2023-05-09T05:08:10;101358.88;;;16.83;80.10
68075;BME280;54864;52.002;5.468;2023-05-09T05:09:11;101352.41;;;16.87;80.44
68075;BME280;54864;52.002;5.468;2023-05-09T05:10:13;101358.13;;;16.81;80.05
68075;BME280;54864;52.002;5.468;2023-05-09T05:11:13;101348.88;;;16.87;80.26
68075;BME280;54864;52.002;5.468;2023-05-09T05:12:17;101346.25;;;16.72;80.41
68075;BME280;54864;52.002;5.468;2023-05-09T05:13:17;101346.91;;;16.76;80.60
68075;BME280;54864;52.002;5.468;2023-05-09T05:14:20;101333.13;;;16.69;80.46
68075;BME280;54864;52.002;5.468;2023-05-09T05:15:23;101340.53;;;16.78;80.22
68075;BME280;54864;52.002;5.468;2023-05-09T05:16:26;101346.34;;;16.71;80.72
68075;BME280;54864;52.002;5.468;2023-05-09T05:17:26;101338.16;;;16.74;80.41
68075;BME280;54864;52.002;5.468;2023-05-09T05:18:29;101338.13;;;16.60;80.24
68075;BME280;54864;52.002;5.468;2023-05-09T05:19:30;101330.66;;;16.66;80.69
68075;BME280;54864;52.002;5.468;2023-05-09T05:20:32;101334.44;;;16.76;80.88
68075;BME280;54864;52.002;5.468;2023-05-09T05:21:34;101323.31;;;16.70;80.18
68075;BME280;54864;52.002;5.468;2023-05-09T05:22:35;101327.50;;;16.74;80.29
68075;BME280;54864;52.002;5.468;2023-05-09T05:23:39;101329.69;;;16.82;80.31
68075;BME280;54864;52.002;5.468;2023-05-09T05:24:41;101331.88;;;16.75;80.08
68075;BME280;54864;52.002;5.468;2023-05-09T05:25:42;101328.25;;;16.76;79.95
68075;BME280;54864;52.002;5.468;2023-05-09T05:26:44;101334.63;;;16.88;80.26
68075;BME280;54864;52.002;5.468;2023-05-09T05:27:45;101330.91;;;16.90;79.94